sensor_id;sensor_type;location;lat;lon;timestamp;P1;durP1;ratioP1;P2;durP2;ratioP2
71973;SDS011;59840;52.122;5.404;2024-01-30T00:04:54;29.50;;;9.38;;
71973;SDS011;59840;52.122;5.404;2024-01-30T00:07:21;19.00;;;7.55;;
71973;SDS011;59840;52.122;5.404;2024-01-30T00:09:47;15.43;;;6.80;;
71973;SDS011;59840;52.122;5.404;2024-01-30T00:12:14;26.90;;;7.22;;
71973;SDS011;59840;52.122;5.404;2024-01-30T00:14:41;32.00;;;7.30;;
71973;SDS011;59840;52.122;5.404;2024-01-30T00:17:09;23.83;;;7.80;;
71973;SDS011;59840;52.122;5.404;2024-01-30T00:19:36;19.50;;;7.25;;
71973;SDS011;59840;52.122;5.404;2024-01-30T00:22:03;11.15;;;6.75;;
71973;SDS011;59840;52.122;5.404;2024-01-30T00:24:29;13.07;;;6.72;;
71973;SDS011;59840;52.122;5.404;2024-01-30T00:26:56;23.10;;;7.33;;
71973;SDS011;59840;52.122;5.404;2024-01-30T00:29:23;14.70;;;6.88;;
71973;SDS011;59840;52.122;5.404;2024-01-30T00:31:51;12.10;;;6.72;;
71973;SDS011;59840;52.122;5.404;2024-01-30T00:34:18;13.05;;;7.15;;
71973;SDS011;59840;52.122;5.404;2024-01-30T00:36:45;17.73;;;7.68;;
71973;SDS011;59840;52.122;5.404;2024-01-30T00:39:12;9.80;;;6.40;;
71973;SDS011;59840;52.122;5.404;2024-01-30T00:41:38;11.10;;;6.50;;
71973;SDS011;59840;52.122;5.404;2024-01-30T00:44:05;12.75;;;7.00;;
71973;SDS011;59840;52.122;5.404;2024-01-30T00:46:31;11.00;;;6.97;;
71973;SDS011;59840;52.122;5.404;2024-01-30T00:48:58;17.13;;;7.07;;
71973;SDS011;59840;52.122;5.404;2024-01-30T00:51:25;22.57;;;7.63;;
71973;SDS011;59840;52.122;5.404;2024-01-30T00:53:51;10.68;;;6.72;;
71973;SDS011;59840;52.122;5.404;2024-01-30T00:56:18;16.10;;;7.35;;
71973;SDS011;59840;52.122;5.404;2024-01-30T00:58:45;11.60;;;6.47;;
71973;SDS011;59840;52.122;5.404;2024-01-30T01:01:12;16.65;;;7.35;;
71973;SDS011;59840;52.122;5.404;2024-01-30T01:03:39;11.90;;;6.57;;
71973;SDS011;59840;52.122;5.404;2024-01-30T01:06:07;12.57;;;7.00;;
71973;SDS011;59840;52.122;5.404;2024-01-30T01:08:34;23.08;;;7.20;;
71973;SDS011;59840;52.122;5.404;2024-01-30T01:11:00;10.65;;;6.72;;
71973;SDS011;59840;52.122;5.404;2024-01-30T01:13:27;21.60;;;6.80;;
71973;SDS011;59840;52.122;5.404;2024-01-30T01:15:53;14.13;;;6.47;;
71973;SDS011;59840;52.122;5.404;2024-01-30T01:18:20;53.50;;;9.82;;
71973;SDS011;59840;52.122;5.404;2024-01-30T01:20:51;24.27;;;6.93;;
71973;SDS011;59840;52.122;5.404;2024-01-30T01:23:17;16.95;;;6.85;;
71973;SDS011;59840;52.122;5.404;2024-01-30T01:25:45;10.77;;;6.82;;
71973;SDS011;59840;52.122;5.404;2024-01-30T01:28:11;13.57;;;6.07;;
71973;SDS011;59840;52.122;5.404;2024-01-30T01:30:38;18.98;;;8.13;;
71973;SDS011;59840;52.122;5.404;2024-01-30T01:33:05;34.53;;;7.65;;
71973;SDS011;59840;52.122;5.404;2024-01-30T01:35:33;18.00;;;7.20;;
71973;SDS011;59840;52.122;5.404;2024-01-30T01:38:00;18.42;;;7.70;;
71973;SDS011;59840;52.122;5.404;2024-01-30T01:40:27;13.57;;;6.37;;
71973;SDS011;59840;52.122;5.404;2024-01-30T01:42:56;13.38;;;5.97;;
71973;SDS011;59840;52.122;5.404;2024-01-30T01:45:22;17.95;;;6.55;;
71973;SDS011;59840;52.122;5.404;2024-01-30T01:47:50;12.07;;;6.47;;
71973;SDS011;59840;52.122;5.404;2024-01-30T01:50:18;10.20;;;6.10;;
71973;SDS011;59840;52.122;5.404;2024-01-30T01:52:50;23.17;;;6.50;;
71973;SDS011;59840;52.122;5.404;2024-01-30T01:55:17;16.63;;;6.72;;
71973;SDS011;59840;52.122;5.404;2024-01-30T01:57:48;17.58;;;6.75;;
71973;SDS011;59840;52.122;5.404;2024-01-30T02:00:14;41.10;;;8.80;;
71973;SDS011;59840;52.122;5.404;2024-01-30T02:02:42;12.25;;;6.65;;
71973;SDS011;59840;52.122;5.404;2024-01-30T02:05:09;8.00;;;5.70;;
71973;SDS011;59840;52.122;5.404;2024-01-30T02:07:36;7.05;;;5.38;;
71973;SDS011;59840;52.122;5.404;2024-01-30T02:10:04;11.05;;;5.57;;
71973;SDS011;59840;52.122;5.404;2024-01-30T02:12:31;11.18;;;5.90;;
71973;SDS011;59840;52.122;5.404;2024-01-30T02:14:57;10.57;;;5.53;;
71973;SDS011;59840;52.122;5.404;2024-01-30T02:17:24;17.87;;;6.13;;
71973;SDS011;59840;52.122;5.404;2024-01-30T02:19:51;8.18;;;4.80;;
71973;SDS011;59840;52.122;5.404;2024-01-30T02:22:18;8.48;;;5.50;;
71973;SDS011;59840;52.122;5.404;2024-01-30T02:24:46;7.55;;;4.90;;
71973;SDS011;59840;52.122;5.404;2024-01-30T02:27:13;8.15;;;5.30;;
71973;SDS011;59840;52.122;5.404;2024-01-30T02:29:39;18.77;;;6.27;;
71973;SDS011;59840;52.122;5.404;2024-01-30T02:32:06;15.57;;;5.53;;
71973;SDS011;59840;52.122;5.404;2024-01-30T02:34:33;8.10;;;5.45;;
71973;SDS011;59840;52.122;5.404;2024-01-30T02:37:00;7.68;;;5.38;;
71973;SDS011;59840;52.122;5.404;2024-01-30T02:39:27;14.38;;;5.60;;
71973;SDS011;59840;52.122;5.404;2024-01-30T02:41:54;10.60;;;5.80;;
71973;SDS011;59840;52.122;5.404;2024-01-30T02:44:21;18.10;;;5.93;;
71973;SDS011;59840;52.122;5.404;2024-01-30T02:46:47;7.95;;;4.38;;
71973;SDS011;59840;52.122;5.404;2024-01-30T02:49:14;8.93;;;5.38;;
71973;SDS011;59840;52.122;5.404;2024-01-30T02:51:41;8.23;;;5.10;;
71973;SDS011;59840;52.122;5.404;2024-01-30T02:54:07;6.63;;;4.53;;
71973;SDS011;59840;52.122;5.404;2024-01-30T02:56:34;10.13;;;5.78;;
71973;SDS011;59840;52.122;5.404;2024-01-30T02:59:00;8.10;;;4.57;;
71973;SDS011;59840;52.122;5.404;2024-01-30T03:01:27;12.23;;;6.10;;
71973;SDS011;59840;52.122;5.404;2024-01-30T03:03:53;30.85;;;7.03;;
71973;SDS011;59840;52.122;5.404;2024-01-30T03:06:20;33.27;;;6.80;;
71973;SDS011;59840;52.122;5.404;2024-01-30T03:08:48;26.13;;;8.35;;
71973;SDS011;59840;52.122;5.404;2024-01-30T03:11:14;19.85;;;7.88;;
71973;SDS011;59840;52.122;5.404;2024-01-30T03:13:41;14.75;;;7.57;;
71973;SDS011;59840;52.122;5.404;2024-01-30T03:16:08;16.65;;;8.02;;
71973;SDS011;59840;52.122;5.404;2024-01-30T03:18:34;16.43;;;8.30;;
71973;SDS011;59840;52.122;5.404;2024-01-30T03:21:01;31.08;;;8.63;;
71973;SDS011;59840;52.122;5.404;2024-01-30T03:23:28;24.05;;;7.97;;
71973;SDS011;59840;52.122;5.404;2024-01-30T03:25:54;13.35;;;7.05;;
71973;SDS011;59840;52.122;5.404;2024-01-30T03:28:21;14.27;;;7.88;;
71973;SDS011;59840;52.122;5.404;2024-01-30T03:30:47;20.03;;;7.33;;
71973;SDS011;59840;52.122;5.404;2024-01-30T03:33:14;20.88;;;7.30;;
71973;SDS011;59840;52.122;5.404;2024-01-30T03:35:40;12.05;;;6.22;;
71973;SDS011;59840;52.122;5.404;2024-01-30T03:38:07;15.45;;;7.05;;
71973;SDS011;59840;52.122;5.404;2024-01-30T03:40:34;11.50;;;6.25;;
71973;SDS011;59840;52.122;5.404;2024-01-30T03:43:00;33.07;;;7.20;;
71973;SDS011;59840;52.122;5.404;2024-01-30T03:45:27;11.57;;;6.13;;
71973;SDS011;59840;52.122;5.404;2024-01-30T03:47:53;10.35;;;6.32;;
71973;SDS011;59840;52.122;5.404;2024-01-30T03:50:20;11.75;;;6.30;;
71973;SDS011;59840;52.122;5.404;2024-01-30T03:52:47;10.60;;;5.43;;
71973;SDS011;59840;52.122;5.404;2024-01-30T03:55:13;8.73;;;5.70;;
71973;SDS011;59840;52.122;5.404;2024-01-30T03:57:40;22.55;;;6.15;;
71973;SDS011;59840;52.122;5.404;2024-01-30T04:00:07;9.95;;;6.05;;
71973;SDS011;59840;52.122;5.404;2024-01-30T04:02:34;15.02;;;5.70;;
71973;SDS011;59840;52.122;5.404;2024-01-30T04:05:01;11.27;;;5.20;;
71973;SDS011;59840;52.122;5.404;2024-01-30T04:07:28;6.70;;;5.17;;
71973;SDS011;59840;52.122;5.404;2024-01-30T04:09:55;9.20;;;5.20;;
71973;SDS011;59840;52.122;5.404;2024-01-30T04:12:22;14.15;;;4.80;;
71973;SDS011;59840;52.122;5.404;2024-01-30T04:14:48;7.95;;;4.95;;
71973;SDS011;59840;52.122;5.404;2024-01-30T04:17:15;18.42;;;5.10;;
71973;SDS011;59840;52.122;5.404;2024-01-30T04:19:41;13.83;;;5.40;;
71973;SDS011;59840;52.122;5.404;2024-01-30T04:22:08;7.65;;;4.60;;
71973;SDS011;59840;52.122;5.404;2024-01-30T04:24:35;7.88;;;5.13;;
71973;SDS011;59840;52.122;5.404;2024-01-30T04:27:01;8.63;;;4.60;;
71973;SDS011;59840;52.122;5.404;2024-01-30T04:29:28;11.60;;;4.82;;
71973;SDS011;59840;52.122;5.404;2024-01-30T04:31:55;15.10;;;5.20;;
71973;SDS011;59840;52.122;5.404;2024-01-30T04:34:21;9.45;;;4.85;;
71973;SDS011;59840;52.122;5.404;2024-01-30T04:36:48;10.85;;;5.43;;
71973;SDS011;59840;52.122;5.404;2024-01-30T04:39:15;10.80;;;5.28;;
71973;SDS011;59840;52.122;5.404;2024-01-30T04:41:41;15.40;;;5.20;;
71973;SDS011;59840;52.122;5.404;2024-01-30T04:44:08;7.80;;;4.70;;
71973;SDS011;59840;52.122;5.404;2024-01-30T04:46:34;10.27;;;4.00;;
71973;SDS011;59840;52.122;5.404;2024-01-30T04:49:01;9.52;;;4.60;;
71973;SDS011;59840;52.122;5.404;2024-01-30T04:51:27;11.30;;;4.70;;
71973;SDS011;59840;52.122;5.404;2024-01-30T04:53:54;14.20;;;4.65;;
71973;SDS011;59840;52.122;5.404;2024-01-30T04:56:21;13.27;;;5.40;;
71973;SDS011;59840;52.122;5.404;2024-01-30T04:58:48;9.00;;;4.93;;
71973;SDS011;59840;52.122;5.404;2024-01-30T05:01:15;10.07;;;5.28;;
71973;SDS011;59840;52.122;5.404;2024-01-30T05:03:42;10.00;;;4.55;;
71973;SDS011;59840;52.122;5.404;2024-01-30T05:06:09;14.73;;;5.57;;
71973;SDS011;59840;52.122;5.404;2024-01-30T05:08:36;9.20;;;4.70;;
71973;SDS011;59840;52.122;5.404;2024-01-30T05:11:05;22.15;;;4.95;;
71973;SDS011;59840;52.122;5.404;2024-01-30T05:13:32;20.73;;;4.97;;
71973;SDS011;59840;52.122;5.404;2024-01-30T05:15:59;10.98;;;5.00;;
71973;SDS011;59840;52.122;5.404;2024-01-30T05:18:28;8.43;;;4.75;;
71973;SDS011;59840;52.122;5.404;2024-01-30T05:20:55;6.60;;;4.70;;
71973;SDS011;59840;52.122;5.404;2024-01-30T05:23:21;19.10;;;5.38;;
71973;SDS011;59840;52.122;5.404;2024-01-30T05:25:48;19.33;;;4.57;;
71973;SDS011;59840;52.122;5.404;2024-01-30T05:28:14;16.33;;;4.88;;
71973;SDS011;59840;52.122;5.404;2024-01-30T05:30:41;14.57;;;4.68;;
71973;SDS011;59840;52.122;5.404;2024-01-30T05:33:08;7.57;;;4.90;;
71973;SDS011;59840;52.122;5.404;2024-01-30T05:35:36;11.63;;;4.82;;
71973;SDS011;59840;52.122;5.404;2024-01-30T05:38:02;8.07;;;4.57;;
71973;SDS011;59840;52.122;5.404;2024-01-30T05:40:29;14.23;;;5.13;;
71973;SDS011;59840;52.122;5.404;2024-01-30T05:42:57;8.32;;;4.22;;
71973;SDS011;59840;52.122;5.404;2024-01-30T05:49:16;10.68;;;4.00;;
71973;SDS011;59840;52.122;5.404;2024-01-30T05:55:40;7.82;;;4.22;;
71973;SDS011;59840;52.122;5.404;2024-01-30T05:58:07;6.35;;;4.15;;
71973;SDS011;59840;52.122;5.404;2024-01-30T06:00:33;10.70;;;4.30;;
71973;SDS011;59840;52.122;5.404;2024-01-30T06:03:03;9.35;;;4.78;;
71973;SDS011;59840;52.122;5.404;2024-01-30T06:09:10;15.23;;;4.68;;
71973;SDS011;59840;52.122;5.404;2024-01-30T06:11:39;8.50;;;4.32;;
71973;SDS011;59840;52.122;5.404;2024-01-30T06:14:05;7.80;;;4.00;;
71973;SDS011;59840;52.122;5.404;2024-01-30T06:16:32;11.30;;;4.60;;
71973;SDS011;59840;52.122;5.404;2024-01-30T06:18:59;12.77;;;4.70;;
71973;SDS011;59840;52.122;5.404;2024-01-30T06:21:26;17.45;;;5.20;;
71973;SDS011;59840;52.122;5.404;2024-01-30T06:23:53;8.35;;;4.07;;
71973;SDS011;59840;52.122;5.404;2024-01-30T06:34:21;16.10;;;4.68;;
71973;SDS011;59840;52.122;5.404;2024-01-30T06:40:31;10.45;;;4.43;;
71973;SDS011;59840;52.122;5.404;2024-01-30T06:42:58;15.37;;;4.33;;
71973;SDS011;59840;52.122;5.404;2024-01-30T06:45:24;9.75;;;4.57;;
71973;SDS011;59840;52.122;5.404;2024-01-30T06:47:51;8.38;;;4.40;;
71973;SDS011;59840;52.122;5.404;2024-01-30T06:50:18;7.35;;;3.97;;
71973;SDS011;59840;52.122;5.404;2024-01-30T06:52:44;14.13;;;4.93;;
71973;SDS011;59840;52.122;5.404;2024-01-30T06:55:11;9.53;;;4.27;;
71973;SDS011;59840;52.122;5.404;2024-01-30T06:57:37;12.60;;;5.38;;
71973;SDS011;59840;52.122;5.404;2024-01-30T07:00:04;6.03;;;4.20;;
71973;SDS011;59840;52.122;5.404;2024-01-30T07:02:31;5.32;;;4.57;;
71973;SDS011;59840;52.122;5.404;2024-01-30T07:04:58;19.73;;;5.00;;
71973;SDS011;59840;52.122;5.404;2024-01-30T07:07:25;7.93;;;4.67;;
71973;SDS011;59840;52.122;5.404;2024-01-30T07:09:51;8.18;;;4.53;;
71973;SDS011;59840;52.122;5.404;2024-01-30T07:12:23;5.78;;;4.63;;
71973;SDS011;59840;52.122;5.404;2024-01-30T07:14:51;15.10;;;4.75;;
71973;SDS011;59840;52.122;5.404;2024-01-30T07:17:18;9.63;;;4.00;;
71973;SDS011;59840;52.122;5.404;2024-01-30T07:19:45;5.87;;;4.00;;
71973;SDS011;59840;52.122;5.404;2024-01-30T07:22:11;6.15;;;4.13;;
71973;SDS011;59840;52.122;5.404;2024-01-30T07:24:42;7.15;;;3.90;;
71973;SDS011;59840;52.122;5.404;2024-01-30T07:27:11;9.90;;;4.45;;
71973;SDS011;59840;52.122;5.404;2024-01-30T07:29:37;8.10;;;4.07;;
71973;SDS011;59840;52.122;5.404;2024-01-30T07:32:04;8.87;;;3.90;;
71973;SDS011;59840;52.122;5.404;2024-01-30T07:34:31;10.35;;;4.20;;
71973;SDS011;59840;52.122;5.404;2024-01-30T07:37:01;9.63;;;4.28;;
71973;SDS011;59840;52.122;5.404;2024-01-30T07:39:28;8.35;;;4.15;;
71973;SDS011;59840;52.122;5.404;2024-01-30T07:41:55;9.68;;;4.40;;
71973;SDS011;59840;52.122;5.404;2024-01-30T07:44:21;6.50;;;4.00;;
71973;SDS011;59840;52.122;5.404;2024-01-30T07:46:48;14.30;;;4.60;;
71973;SDS011;59840;52.122;5.404;2024-01-30T07:49:15;5.72;;;4.20;;
71973;SDS011;59840;52.122;5.404;2024-01-30T07:51:41;8.20;;;4.38;;
71973;SDS011;59840;52.122;5.404;2024-01-30T07:54:12;10.93;;;4.95;;
71973;SDS011;59840;52.122;5.404;2024-01-30T07:56:39;8.97;;;4.17;;
71973;SDS011;59840;52.122;5.404;2024-01-30T07:59:05;5.95;;;4.10;;
71973;SDS011;59840;52.122;5.404;2024-01-30T08:01:36;9.27;;;4.40;;
71973;SDS011;59840;52.122;5.404;2024-01-30T08:04:03;10.20;;;4.35;;
71973;SDS011;59840;52.122;5.404;2024-01-30T08:06:30;12.15;;;4.93;;
71973;SDS011;59840;52.122;5.404;2024-01-30T08:08:57;16.00;;;5.73;;
71973;SDS011;59840;52.122;5.404;2024-01-30T08:11:25;7.28;;;4.32;;
71973;SDS011;59840;52.122;5.404;2024-01-30T08:13:53;9.30;;;4.25;;
71973;SDS011;59840;52.122;5.404;2024-01-30T08:16:19;9.05;;;4.50;;
71973;SDS011;59840;52.122;5.404;2024-01-30T08:18:46;5.82;;;3.85;;
71973;SDS011;59840;52.122;5.404;2024-01-30T08:21:12;4.57;;;3.40;;
71973;SDS011;59840;52.122;5.404;2024-01-30T08:23:39;10.07;;;4.22;;
71973;SDS011;59840;52.122;5.404;2024-01-30T08:26:06;9.13;;;4.50;;
71973;SDS011;59840;52.122;5.404;2024-01-30T08:28:32;9.82;;;4.38;;
71973;SDS011;59840;52.122;5.404;2024-01-30T08:30:59;10.45;;;4.30;;
71973;SDS011;59840;52.122;5.404;2024-01-30T08:33:25;9.57;;;4.07;;
71973;SDS011;59840;52.122;5.404;2024-01-30T08:35:52;7.10;;;4.10;;
71973;SDS011;59840;52.122;5.404;2024-01-30T08:38:19;13.23;;;4.35;;
71973;SDS011;59840;52.122;5.404;2024-01-30T08:40:45;7.35;;;4.10;;
71973;SDS011;59840;52.122;5.404;2024-01-30T08:43:12;7.35;;;3.75;;
71973;SDS011;59840;52.122;5.404;2024-01-30T08:45:39;7.40;;;3.97;;
71973;SDS011;59840;52.122;5.404;2024-01-30T08:48:06;7.60;;;4.45;;
71973;SDS011;59840;52.122;5.404;2024-01-30T08:50:33;10.70;;;4.43;;
71973;SDS011;59840;52.122;5.404;2024-01-30T08:52:59;10.85;;;3.65;;
71973;SDS011;59840;52.122;5.404;2024-01-30T08:55:26;11.82;;;4.63;;
71973;SDS011;59840;52.122;5.404;2024-01-30T08:57:53;6.50;;;3.80;;
71973;SDS011;59840;52.122;5.404;2024-01-30T09:00:20;7.80;;;4.53;;
71973;SDS011;59840;52.122;5.404;2024-01-30T09:02:46;10.43;;;4.13;;
71973;SDS011;59840;52.122;5.404;2024-01-30T09:05:13;9.63;;;4.90;;
71973;SDS011;59840;52.122;5.404;2024-01-30T09:07:40;11.27;;;4.50;;
71973;SDS011;59840;52.122;5.404;2024-01-30T09:10:07;5.70;;;3.80;;
71973;SDS011;59840;52.122;5.404;2024-01-30T09:12:38;6.82;;;3.92;;
71973;SDS011;59840;52.122;5.404;2024-01-30T09:15:04;7.93;;;4.15;;
71973;SDS011;59840;52.122;5.404;2024-01-30T09:17:31;7.82;;;4.07;;
71973;SDS011;59840;52.122;5.404;2024-01-30T09:19:59;14.32;;;4.30;;
71973;SDS011;59840;52.122;5.404;2024-01-30T09:22:26;11.07;;;4.63;;
71973;SDS011;59840;52.122;5.404;2024-01-30T09:24:52;10.55;;;4.05;;
71973;SDS011;59840;52.122;5.404;2024-01-30T09:27:19;11.20;;;4.57;;
71973;SDS011;59840;52.122;5.404;2024-01-30T09:29:46;8.88;;;4.32;;
71973;SDS011;59840;52.122;5.404;2024-01-30T09:32:12;10.18;;;4.38;;
71973;SDS011;59840;52.122;5.404;2024-01-30T09:34:39;10.07;;;4.00;;
71973;SDS011;59840;52.122;5.404;2024-01-30T09:37:07;11.77;;;4.13;;
71973;SDS011;59840;52.122;5.404;2024-01-30T09:39:34;9.02;;;4.40;;
71973;SDS011;59840;52.122;5.404;2024-01-30T09:42:01;7.60;;;4.82;;
71973;SDS011;59840;52.122;5.404;2024-01-30T09:44:38;10.73;;;4.13;;
71973;SDS011;59840;52.122;5.404;2024-01-30T09:47:08;10.50;;;3.97;;
71973;SDS011;59840;52.122;5.404;2024-01-30T09:49:34;13.38;;;4.45;;
71973;SDS011;59840;52.122;5.404;2024-01-30T09:52:05;8.75;;;4.30;;
71973;SDS011;59840;52.122;5.404;2024-01-30T09:54:33;6.35;;;3.85;;
71973;SDS011;59840;52.122;5.404;2024-01-30T09:57:02;10.23;;;4.28;;
71973;SDS011;59840;52.122;5.404;2024-01-30T09:59:29;7.47;;;4.13;;
71973;SDS011;59840;52.122;5.404;2024-01-30T10:01:56;8.73;;;4.13;;
71973;SDS011;59840;52.122;5.404;2024-01-30T10:04:24;8.25;;;4.40;;
71973;SDS011;59840;52.122;5.404;2024-01-30T10:06:51;13.52;;;4.47;;
71973;SDS011;59840;52.122;5.404;2024-01-30T10:09:17;6.95;;;4.20;;
71973;SDS011;59840;52.122;5.404;2024-01-30T10:11:44;8.53;;;4.30;;
71973;SDS011;59840;52.122;5.404;2024-01-30T10:14:10;7.53;;;3.95;;
71973;SDS011;59840;52.122;5.404;2024-01-30T10:16:37;8.07;;;4.00;;
71973;SDS011;59840;52.122;5.404;2024-01-30T10:19:04;7.05;;;4.13;;
71973;SDS011;59840;52.122;5.404;2024-01-30T10:21:30;6.68;;;4.18;;
71973;SDS011;59840;52.122;5.404;2024-01-30T10:23:57;9.10;;;4.43;;
71973;SDS011;59840;52.122;5.404;2024-01-30T10:26:24;12.02;;;4.60;;
71973;SDS011;59840;52.122;5.404;2024-01-30T10:28:50;8.73;;;4.05;;
71973;SDS011;59840;52.122;5.404;2024-01-30T10:31:17;5.85;;;3.83;;
71973;SDS011;59840;52.122;5.404;2024-01-30T10:33:47;13.25;;;4.60;;
71973;SDS011;59840;52.122;5.404;2024-01-30T10:36:14;10.90;;;4.30;;
71973;SDS011;59840;52.122;5.404;2024-01-30T10:38:46;11.20;;;4.15;;
71973;SDS011;59840;52.122;5.404;2024-01-30T10:41:18;9.80;;;4.40;;
71973;SDS011;59840;52.122;5.404;2024-01-30T10:43:50;9.63;;;4.80;;
71973;SDS011;59840;52.122;5.404;2024-01-30T10:46:29;6.93;;;4.07;;
71973;SDS011;59840;52.122;5.404;2024-01-30T10:48:59;8.80;;;4.33;;
71973;SDS011;59840;52.122;5.404;2024-01-30T10:51:27;5.28;;;4.15;;
71973;SDS011;59840;52.122;5.404;2024-01-30T10:53:55;11.70;;;4.47;;
71973;SDS011;59840;52.122;5.404;2024-01-30T10:56:24;5.15;;;3.80;;
71973;SDS011;59840;52.122;5.404;2024-01-30T10:58:51;9.13;;;4.68;;
71973;SDS011;59840;52.122;5.404;2024-01-30T11:01:22;9.37;;;4.13;;
71973;SDS011;59840;52.122;5.404;2024-01-30T11:03:51;8.00;;;3.75;;
71973;SDS011;59840;52.122;5.404;2024-01-30T11:06:21;9.20;;;3.88;;
71973;SDS011;59840;52.122;5.404;2024-01-30T11:09:01;12.45;;;3.75;;
71973;SDS011;59840;52.122;5.404;2024-01-30T11:11:30;6.00;;;3.60;;
71973;SDS011;59840;52.122;5.404;2024-01-30T11:14:00;6.80;;;4.37;;
71973;SDS011;59840;52.122;5.404;2024-01-30T11:16:30;6.88;;;3.75;;
71973;SDS011;59840;52.122;5.404;2024-01-30T11:19:00;11.63;;;3.92;;
71973;SDS011;59840;52.122;5.404;2024-01-30T11:21:29;8.63;;;3.90;;
71973;SDS011;59840;52.122;5.404;2024-01-30T11:23:55;7.78;;;4.05;;
71973;SDS011;59840;52.122;5.404;2024-01-30T11:26:27;6.20;;;3.80;;
71973;SDS011;59840;52.122;5.404;2024-01-30T11:28:55;4.05;;;2.97;;
71973;SDS011;59840;52.122;5.404;2024-01-30T11:31:21;6.38;;;3.33;;
71973;SDS011;59840;52.122;5.404;2024-01-30T11:33:52;6.53;;;3.22;;
71973;SDS011;59840;52.122;5.404;2024-01-30T11:36:20;5.47;;;2.78;;
71973;SDS011;59840;52.122;5.404;2024-01-30T11:38:52;7.60;;;2.40;;
71973;SDS011;59840;52.122;5.404;2024-01-30T11:41:19;6.60;;;1.75;;
71973;SDS011;59840;52.122;5.404;2024-01-30T11:43:52;7.18;;;1.90;;
71973;SDS011;59840;52.122;5.404;2024-01-30T11:46:20;5.03;;;1.52;;
71973;SDS011;59840;52.122;5.404;2024-01-30T11:48:46;7.25;;;1.58;;
71973;SDS011;59840;52.122;5.404;2024-01-30T11:51:14;3.13;;;0.80;;
71973;SDS011;59840;52.122;5.404;2024-01-30T11:53:41;2.67;;;0.75;;
71973;SDS011;59840;52.122;5.404;2024-01-30T11:56:08;4.53;;;0.70;;
71973;SDS011;59840;52.122;5.404;2024-01-30T11:58:34;6.95;;;0.88;;
71973;SDS011;59840;52.122;5.404;2024-01-30T12:01:01;2.05;;;0.60;;
71973;SDS011;59840;52.122;5.404;2024-01-30T12:03:28;5.20;;;0.63;;
71973;SDS011;59840;52.122;5.404;2024-01-30T12:05:55;3.90;;;0.50;;
71973;SDS011;59840;52.122;5.404;2024-01-30T12:08:24;2.88;;;0.60;;
71973;SDS011;59840;52.122;5.404;2024-01-30T12:10:57;2.58;;;0.45;;
71973;SDS011;59840;52.122;5.404;2024-01-30T12:13:31;9.90;;;0.75;;
71973;SDS011;59840;52.122;5.404;2024-01-30T12:15:59;3.43;;;0.40;;
71973;SDS011;59840;52.122;5.404;2024-01-30T12:18:29;1.73;;;0.60;;
71973;SDS011;59840;52.122;5.404;2024-01-30T12:20:59;0.90;;;0.50;;
71973;SDS011;59840;52.122;5.404;2024-01-30T12:23:27;2.33;;;0.50;;
71973;SDS011;59840;52.122;5.404;2024-01-30T12:25:54;1.45;;;0.50;;
71973;SDS011;59840;52.122;5.404;2024-01-30T12:28:21;2.27;;;1.10;;
71973;SDS011;59840;52.122;5.404;2024-01-30T12:30:48;2.28;;;1.05;;
71973;SDS011;59840;52.122;5.404;2024-01-30T12:33:17;4.18;;;1.42;;
71973;SDS011;59840;52.122;5.404;2024-01-30T12:35:47;2.78;;;1.25;;
71973;SDS011;59840;52.122;5.404;2024-01-30T12:38:27;3.42;;;1.10;;
71973;SDS011;59840;52.122;5.404;2024-01-30T12:40:54;4.77;;;1.27;;
71973;SDS011;59840;52.122;5.404;2024-01-30T12:43:22;7.15;;;1.30;;
71973;SDS011;59840;52.122;5.404;2024-01-30T12:46:03;2.97;;;0.88;;
71973;SDS011;59840;52.122;5.404;2024-01-30T12:48:30;2.65;;;0.88;;
71973;SDS011;59840;52.122;5.404;2024-01-30T12:50:56;4.13;;;0.88;;
71973;SDS011;59840;52.122;5.404;2024-01-30T12:53:23;2.73;;;0.80;;
71973;SDS011;59840;52.122;5.404;2024-01-30T12:55:50;6.28;;;1.23;;
71973;SDS011;59840;52.122;5.404;2024-01-30T12:58:17;3.67;;;0.85;;
71973;SDS011;59840;52.122;5.404;2024-01-30T13:00:43;4.00;;;0.70;;
71973;SDS011;59840;52.122;5.404;2024-01-30T13:03:11;3.17;;;0.70;;
71973;SDS011;59840;52.122;5.404;2024-01-30T13:05:37;5.90;;;0.80;;
71973;SDS011;59840;52.122;5.404;2024-01-30T13:08:04;7.05;;;1.10;;
71973;SDS011;59840;52.122;5.404;2024-01-30T13:10:31;1.90;;;0.73;;
71973;SDS011;59840;52.122;5.404;2024-01-30T13:12:58;2.25;;;0.90;;
71973;SDS011;59840;52.122;5.404;2024-01-30T13:15:24;2.45;;;0.60;;
71973;SDS011;59840;52.122;5.404;2024-01-30T13:17:51;2.10;;;0.60;;
71973;SDS011;59840;52.122;5.404;2024-01-30T13:20:20;4.05;;;0.70;;
71973;SDS011;59840;52.122;5.404;2024-01-30T13:22:48;5.40;;;0.55;;
71973;SDS011;59840;52.122;5.404;2024-01-30T13:25:17;1.38;;;0.30;;
71973;SDS011;59840;52.122;5.404;2024-01-30T13:27:44;2.13;;;0.70;;
71973;SDS011;59840;52.122;5.404;2024-01-30T13:30:11;2.03;;;0.33;;
71973;SDS011;59840;52.122;5.404;2024-01-30T13:32:37;5.10;;;0.47;;
71973;SDS011;59840;52.122;5.404;2024-01-30T13:35:04;0.55;;;0.10;;
71973;SDS011;59840;52.122;5.404;2024-01-30T13:37:31;1.20;;;0.28;;
71973;SDS011;59840;52.122;5.404;2024-01-30T13:39:58;2.30;;;0.52;;
71973;SDS011;59840;52.122;5.404;2024-01-30T13:42:26;1.00;;;0.40;;
71973;SDS011;59840;52.122;5.404;2024-01-30T13:44:53;1.90;;;0.22;;
71973;SDS011;59840;52.122;5.404;2024-01-30T13:47:20;3.22;;;0.32;;
71973;SDS011;59840;52.122;5.404;2024-01-30T13:49:48;2.10;;;0.68;;
71973;SDS011;59840;52.122;5.404;2024-01-30T13:52:14;4.15;;;0.30;;
71973;SDS011;59840;52.122;5.404;2024-01-30T13:54:41;2.00;;;0.30;;
71973;SDS011;59840;52.122;5.404;2024-01-30T13:57:09;2.38;;;0.20;;
71973;SDS011;59840;52.122;5.404;2024-01-30T13:59:37;4.68;;;0.50;;
71973;SDS011;59840;52.122;5.404;2024-01-30T14:02:04;2.40;;;0.40;;
71973;SDS011;59840;52.122;5.404;2024-01-30T14:04:33;1.65;;;0.20;;
71973;SDS011;59840;52.122;5.404;2024-01-30T14:06:59;1.90;;;0.33;;
71973;SDS011;59840;52.122;5.404;2024-01-30T14:09:30;2.20;;;0.30;;
71973;SDS011;59840;52.122;5.404;2024-01-30T14:11:58;2.08;;;0.22;;
71973;SDS011;59840;52.122;5.404;2024-01-30T14:14:25;2.70;;;0.30;;
71973;SDS011;59840;52.122;5.404;2024-01-30T14:16:52;3.85;;;0.22;;
71973;SDS011;59840;52.122;5.404;2024-01-30T14:19:18;4.57;;;0.60;;
71973;SDS011;59840;52.122;5.404;2024-01-30T14:21:45;4.18;;;0.63;;
71973;SDS011;59840;52.122;5.404;2024-01-30T14:24:12;3.58;;;0.75;;
71973;SDS011;59840;52.122;5.404;2024-01-30T14:26:38;2.35;;;0.20;;
71973;SDS011;59840;52.122;5.404;2024-01-30T14:29:05;5.10;;;0.40;;
71973;SDS011;59840;52.122;5.404;2024-01-30T14:31:31;3.90;;;0.40;;
71973;SDS011;59840;52.122;5.404;2024-01-30T14:33:58;1.85;;;0.50;;
71973;SDS011;59840;52.122;5.404;2024-01-30T14:36:25;3.15;;;0.73;;
71973;SDS011;59840;52.122;5.404;2024-01-30T14:38:54;2.97;;;0.60;;
71973;SDS011;59840;52.122;5.404;2024-01-30T14:41:21;3.53;;;0.30;;
71973;SDS011;59840;52.122;5.404;2024-01-30T14:43:48;3.73;;;0.40;;
71973;SDS011;59840;52.122;5.404;2024-01-30T14:46:15;4.05;;;0.40;;
71973;SDS011;59840;52.122;5.404;2024-01-30T14:48:42;5.68;;;0.50;;
71973;SDS011;59840;52.122;5.404;2024-01-30T14:51:09;2.20;;;0.80;;
71973;SDS011;59840;52.122;5.404;2024-01-30T14:53:36;7.80;;;0.82;;
71973;SDS011;59840;52.122;5.404;2024-01-30T14:56:03;1.83;;;0.40;;
71973;SDS011;59840;52.122;5.404;2024-01-30T14:58:30;1.33;;;0.40;;
71973;SDS011;59840;52.122;5.404;2024-01-30T15:00:57;2.60;;;0.70;;
71973;SDS011;59840;52.122;5.404;2024-01-30T15:03:24;2.40;;;0.50;;
71973;SDS011;59840;52.122;5.404;2024-01-30T15:05:54;2.35;;;0.90;;
71973;SDS011;59840;52.122;5.404;2024-01-30T15:08:21;3.30;;;1.03;;
71973;SDS011;59840;52.122;5.404;2024-01-30T15:10:48;3.65;;;1.23;;